• location
  • image
mod_vvisit_counterThis week2508
mod_vvisit_counterLast week6524
mod_vvisit_counterThis month13171
mod_vvisit_counterLast month14675
mod_vvisit_counterAll days475101

We have: 3 guests, 1 bots online
Your IP:
Today: Oct 21, 2016

July 2016

Cooperation with the US Company “Atlas Air Worldwide Holdings”

In order to increase the cargo flow of goods through International Siauliai Military Airport municipal company Siauliu Oro Uostas attracts new air carriers. One of the examples is the US air cargo company “Atlas Air Worldwide Holdings”,  which services 297 air cargo flight routes in 103 countries on six continents.

We are pleased that the mentioned US company more frequently sends cargo aircraft to International Siauliai Military Airport  exploiting the possibilities of the Airport for exports and imports  of common goods, live animals, heavy, perishable goods.

Municipal company Siauliu Oro Uostas confidently pursues the aim – to form a long-term cargo service platform at International Siauliai Military Airport in cooperation with the partners of the project "New Baltic Air Cargo Gate".

Atlas Air website


Friday, 21 October 2016

Weather Forecast

Siauliai °C

Aviation Weather Forecast

[source: ADDS]
EYSA 211050Z 11012KT 9000 -RA SCT019 OVC035 02/M01 Q1025 WHT NOSIG =
TAF EYSA 211100Z 2112/2121 10014KT 9000 SCT025 TEMPO 2112/2115 RA SCT015 =
SR / SS: 05:11 / 15:13 UTC (EYSA 2016-10-21)


Who's Online

We have 4 guests online

tic logo en